createdAt,value
2022-09-12T00:01:18.727Z,78.95390263291681
2022-09-12T00:04:17.696Z,79.22924866725809
2022-09-12T00:07:17.835Z,80.0028650925928
2022-09-12T00:11:15.934Z,80.05303123619893
2022-09-12T00:14:18.625Z,80.09571153956368
2022-09-12T00:17:16.412Z,80.91159947091589
2022-09-12T00:21:17.594Z,80.90420865758104
2022-09-12T00:24:16.608Z,80.19142772167783
2022-09-12T00:27:17.613Z,80.09296263064333
2022-09-12T00:31:19.414Z,79.9334413809499
2022-09-12T00:34:17.114Z,79.74003262645063
2022-09-12T00:37:17.087Z,79.83566469156041
2022-09-12T00:51:18.737Z,80.08820585505725
2022-09-12T00:54:21.644Z,80.65214500665532
2022-09-12T00:57:21.213Z,81.20669711701376
2022-09-12T01:01:16.137Z,80.72044903465957
2022-09-12T01:04:19.216Z,81.04394563606294
2022-09-12T01:07:16.337Z,81.41243109784624
2022-09-12T01:11:17.635Z,81.76955969470323
2022-09-12T01:14:18.677Z,82.26483396648091
2022-09-12T01:17:17.905Z,82.39455435749386
2022-09-12T01:21:22.747Z,81.90639993003872
2022-09-12T01:41:24.510Z,80.34368343946184
2022-09-12T01:51:24.902Z,80.44779787370202
2022-09-12T01:54:23.118Z,80.31614101022014
2022-09-12T01:57:29.376Z,81.02436150934528
2022-09-12T02:01:22.569Z,80.9229401910097
2022-09-12T02:04:20.820Z,81.57008895840603
2022-09-12T02:07:22.359Z,81.39372873098806
2022-09-12T02:11:18.579Z,81.76343119564704
2022-09-12T02:14:21.614Z,81.9814672403593
2022-09-12T02:17:20.391Z,81.99844686093856
2022-09-12T02:31:22.561Z,83.25030472127007
2022-09-12T02:34:31.994Z,83.03485648914364
2022-09-12T02:37:24.782Z,83.07626062578879
2022-09-12T02:41:19.853Z,83.59290279846674
2022-09-12T02:44:17.671Z,83.85269976065045
2022-09-12T02:47:26.556Z,83.26109904945574
2022-09-12T02:51:21.511Z,83.20514947227589
2022-09-12T02:54:18.595Z,82.91764723579358
2022-09-12T02:57:22.608Z,82.5146259598741
2022-09-12T03:01:28.729Z,82.70665538644937
2022-09-12T03:05:31.040Z,82.45626425967842
2022-09-12T03:07:33.065Z,82.08304029763423
2022-09-12T03:11:34.219Z,81.8868485741471
2022-09-12T03:14:30.991Z,82.46191441526186
2022-09-12T03:17:27.882Z,82.78066776177786
2022-09-12T03:21:23.210Z,82.69217550892388
2022-09-12T03:24:20.497Z,83.70113400420803
2022-09-12T03:27:21.702Z,83.88874765663716
2022-09-12T03:31:18.321Z,83.37615319899895
2022-09-12T03:34:16.588Z,83.4505094047948
2022-09-12T03:37:16.383Z,83.95295460047195
2022-09-12T03:41:15.955Z,84.01241625175311
2022-09-12T03:44:16.900Z,83.4921624251356
2022-09-12T03:47:16.429Z,83.87079277592514
2022-09-12T03:51:16.180Z,82.90707811459855
2022-09-12T03:54:17.363Z,82.40929101989579
2022-09-12T03:57:16.760Z,83.30325259178562
2022-09-12T04:01:18.710Z,83.35574018507216
2022-09-12T04:04:16.560Z,84.90624565590171
2022-09-12T04:07:17.069Z,85.04467905275978
2022-09-12T04:11:19.189Z,83.37549114730335
2022-09-12T04:14:17.217Z,83.65189137751553
2022-09-12T04:17:17.245Z,83.42071597030557
2022-09-12T04:21:18.096Z,83.49185076300066
2022-09-12T04:24:16.619Z,83.95187101908715
2022-09-12T04:27:16.162Z,84.28114653220399
2022-09-12T04:31:18.543Z,83.86912228304483
2022-09-12T04:34:16.780Z,83.39723840590617
2022-09-12T04:37:17.493Z,83.4412935354362
2022-09-12T04:41:18.074Z,82.88497621701275
2022-09-12T04:44:17.320Z,83.01592409323639
2022-09-12T04:47:17.731Z,83.37627545143383
2022-09-12T04:51:18.932Z,83.24681275618681
2022-09-12T04:54:19.322Z,83.71242510306776
2022-09-12T04:57:16.705Z,84.19562626988277
2022-09-12T05:01:18.069Z,83.97320527321607
2022-09-12T05:04:16.570Z,84.71316362587854
2022-09-12T05:07:16.776Z,84.49813282530377
2022-09-12T05:11:24.056Z,84.28301621750629
2022-09-12T05:14:16.764Z,83.59913271470968
2022-09-12T05:17:16.613Z,84.2791094910823
2022-09-12T05:21:18.757Z,84.33304855513366
2022-09-12T05:24:16.454Z,84.86475854160336
2022-09-12T05:27:16.265Z,84.79101490578739
2022-09-12T05:31:19.574Z,85.73918298422271
2022-09-12T05:34:17.475Z,86.24948318664357
2022-09-12T05:37:17.745Z,86.2003947189702
2022-09-12T05:41:24.184Z,85.11496079716059
2022-09-12T05:44:16.542Z,85.2978051370717
2022-09-12T05:47:17.523Z,85.7840411036471
2022-09-12T05:51:21.842Z,86.87139101581492
2022-09-12T05:54:19.141Z,86.66859626772072
2022-09-12T05:57:17.590Z,86.03204809811443
2022-09-12T06:01:25.980Z,83.98124145637468
2022-09-12T06:04:19.566Z,83.7010347769145
2022-09-12T06:07:20.007Z,84.37763896695768
2022-09-12T06:11:19.449Z,85.24702862280552
2022-09-12T06:14:17.402Z,86.09983491357897
2022-09-12T06:17:17.080Z,86.90583277153085
2022-09-12T06:21:17.081Z,86.69145745808697
2022-09-12T06:24:17.141Z,87.83543837937725
2022-09-12T06:27:16.353Z,90.26243941296896
2022-09-12T06:31:19.116Z,91.17782567824864
2022-09-12T06:34:16.810Z,92.49934676997995
2022-09-12T06:37:16.449Z,91.75540995620786
2022-09-12T06:41:16.859Z,90.86154439328045
2022-09-12T06:45:06.200Z,89.68731423157557
2022-09-12T06:47:16.630Z,89.01400917778344
2022-09-12T06:51:19.309Z,89.02034781275745
2022-09-12T06:54:18.607Z,89.93587402000857
2022-09-12T06:57:18.245Z,90.54743450981927
2022-09-12T07:01:18.444Z,90.51605225697348
2022-09-12T07:04:16.601Z,90.1401432897402
2022-09-12T07:07:16.952Z,91.52024838034026
2022-09-12T07:11:17.979Z,93.79920064656045
2022-09-12T07:14:17.166Z,93.56131134536017
2022-09-12T07:17:17.478Z,91.25347499244428
2022-09-12T07:21:16.289Z,88.45417170205661
2022-09-12T07:24:16.802Z,88.24719430279214
2022-09-12T07:27:17.219Z,89.98520338403844
2022-09-12T07:31:19.592Z,90.21627198488056
2022-09-12T07:34:18.015Z,89.161385618797
2022-09-12T07:37:16.721Z,89.41589446422621
2022-09-12T07:41:19.660Z,89.80275532094899
2022-09-12T07:44:16.136Z,90.4044633517044
2022-09-12T07:47:16.153Z,90.33799193602702
2022-09-12T07:51:16.274Z,90.43372961266871
2022-09-12T07:54:16.552Z,89.23864617214781
2022-09-12T07:57:18.032Z,88.30272182338769
2022-09-12T08:01:19.443Z,87.80739849552644
2022-09-12T08:04:16.691Z,86.55739204778047
2022-09-12T08:07:19.882Z,85.87562589674447
2022-09-12T08:11:19.651Z,85.52512625471935
2022-09-12T08:14:18.367Z,85.50317050359335
2022-09-12T08:17:16.654Z,83.52499894213283
2022-09-12T08:21:18.077Z,82.62339611086783
2022-09-12T08:24:17.080Z,82.84304125591157
2022-09-12T08:27:20.744Z,80.94027261404186
2022-09-12T08:31:22.466Z,79.39120381819312
2022-09-12T08:34:21.460Z,80.1313993246996
2022-09-12T08:37:19.097Z,77.28791054393467
2022-09-12T08:41:25.475Z,75.88584935018093
2022-09-12T08:51:19.223Z,71.5184185970861
2022-09-12T08:54:21.809Z,71.57004699869614
2022-09-12T08:57:16.724Z,72.06568961134225
2022-09-12T09:01:32.431Z,73.7678971351912
2022-09-12T09:04:29.028Z,74.75194692893368
2022-09-12T09:07:52.755Z,74.84865610585338
2022-09-12T09:11:28.107Z,77.28351915388913
2022-09-12T09:15:03.099Z,77.33788756324408
2022-09-12T09:17:25.607Z,77.50432144034275
2022-09-12T09:21:24.952Z,78.64068720401006
2022-09-12T09:24:21.650Z,77.35793197207379
2022-09-12T09:27:40.486Z,77.32127015154092
2022-09-12T09:31:19.523Z,77.7364153025848
2022-09-12T09:34:20.565Z,75.5380590957079
2022-09-12T09:37:24.278Z,75.42287266315618
2022-09-12T09:41:31.168Z,74.11757793853272
2022-09-12T09:44:16.849Z,72.22623779328295
2022-09-12T09:47:17.994Z,71.01479528310406
2022-09-12T09:51:20.105Z,71.74285982072269
2022-09-12T09:54:20.639Z,70.62346936106445
2022-09-12T09:57:49.884Z,67.70220434432737
2022-09-12T10:01:17.954Z,66.15593267785451
2022-09-12T10:04:20.037Z,63.54608587954184
2022-09-12T10:07:26.399Z,61.85903392952157
2022-09-12T10:11:20.784Z,62.875473789776585
2022-09-12T10:14:38.434Z,65.23351644591955
2022-09-12T10:17:31.770Z,64.0096847115411
2022-09-12T10:21:24.663Z,64.90405436570103
2022-09-12T10:24:22.469Z,64.14958646383916
2022-09-12T10:27:20.305Z,60.21783094067545
2022-09-12T10:31:27.136Z,57.29418269631169
2022-09-12T10:34:29.069Z,59.04396838991858
2022-09-12T10:37:23.832Z,60.638336216203896
2022-09-12T10:41:17.746Z,55.24710051722419
2022-09-12T10:44:23.671Z,57.311407443688644
2022-09-12T10:47:22.346Z,55.872846820801755
2022-09-12T10:51:27.587Z,55.50472853828807
2022-09-12T10:54:19.633Z,51.867366291553594
2022-09-12T10:57:49.147Z,49.43424473901708
2022-09-12T11:01:31.213Z,48.40196818925581
2022-09-12T11:04:51.679Z,45.525899252149095
2022-09-12T11:07:33.203Z,43.19679374582781
2022-09-12T11:11:35.389Z,42.68652945570004
2022-09-12T11:14:27.126Z,42.680862931509445
2022-09-12T11:17:28.656Z,40.98289000106036
2022-09-12T11:21:27.489Z,41.84095349676899
2022-09-12T11:24:39.339Z,42.44628540797287
2022-09-12T11:27:33.570Z,45.53897005666226
2022-09-12T11:31:35.759Z,42.7292585892015
2022-09-12T11:34:28.609Z,46.08843841743048
2022-09-12T11:37:36.501Z,44.119114896662445
2022-09-12T11:41:22.976Z,41.75852391269539
2022-09-12T11:44:21.739Z,42.14729469131137
2022-09-12T11:47:19.941Z,41.76431871671418
2022-09-12T11:51:26.127Z,39.93634924400726
2022-09-12T11:54:29.893Z,34.027966943561594
2022-09-12T11:57:29.947Z,37.3688970468377
2022-09-12T12:01:24.584Z,33.4804917781078
2022-09-12T12:04:24.993Z,37.63889594459355
2022-09-12T12:07:19.729Z,36.69128482902832
2022-09-12T12:11:28.961Z,33.21977970331696
2022-09-12T12:14:21.372Z,34.39562573826149
2022-09-12T12:17:21.520Z,31.532750255917747
2022-09-12T12:21:33.811Z,32.22797585699149
2022-09-12T12:24:22.481Z,34.5743603579742
2022-09-12T12:27:44.735Z,31.228588004889765
2022-09-12T12:31:18.225Z,31.40833663484044
2022-09-12T12:34:29.689Z,30.999183130464537
2022-09-12T12:37:54.491Z,30.001225504655185
2022-09-12T12:41:48.545Z,30.30689399941244
2022-09-12T12:44:50.694Z,31.218300365381065
2022-09-12T12:47:20.752Z,27.027822310064764
2022-09-12T13:01:20.406Z,30.64275546489776
2022-09-12T13:04:19.995Z,31.643169590974292
2022-09-12T13:07:26.971Z,32.550194178874904
2022-09-12T13:11:29.600Z,32.395553504935855
2022-09-12T13:14:37.401Z,30.4367276144497
2022-09-12T13:17:24.151Z,29.390012015786493
2022-09-12T13:21:18.431Z,30.22984964273824
2022-09-12T13:24:16.522Z,30.17449532377618
2022-09-12T13:27:20.027Z,30.89894540476425
2022-09-12T13:31:22.126Z,27.050099580815406
2022-09-12T13:34:48.173Z,25.84398584555918
2022-09-12T13:37:32.585Z,29.699248115459273
2022-09-12T13:41:33.540Z,27.713101260263596
2022-09-12T13:44:21.404Z,26.981675565229096
2022-09-12T13:47:24.607Z,27.676095583454813
2022-09-12T13:51:24.719Z,28.065141031590727
2022-09-12T13:54:22.522Z,28.97907063977408
2022-09-12T13:57:35.963Z,30.656063609002427
2022-09-12T14:01:16.647Z,28.146383638400643
2022-09-12T14:05:25.243Z,27.275962516877097
2022-09-12T14:07:21.408Z,28.283055022851592
2022-09-12T14:11:25.259Z,26.814840341024524
2022-09-12T14:14:25.956Z,25.636335979220846
2022-09-12T14:17:23.671Z,27.56289013882399
2022-09-12T14:21:33.767Z,28.894575650797215
2022-09-12T14:24:17.602Z,28.890441940563097
2022-09-12T14:27:19.263Z,25.179478491844336
2022-09-12T14:31:23.369Z,27.302838454310844
2022-09-12T14:34:19.015Z,27.19897381792849
2022-09-12T14:37:17.148Z,25.599824322421757
2022-09-12T14:41:23.333Z,28.123842882784153
2022-09-12T14:44:18.926Z,28.579684100482925
2022-09-12T14:47:23.121Z,25.82139607172531
2022-09-12T14:51:25.307Z,27.32192519338193
2022-09-12T14:54:56.082Z,26.84983891738027
2022-09-12T14:57:35.308Z,25.84684880457556
2022-09-12T15:01:24.562Z,27.59295553678252
2022-09-12T15:04:39.096Z,26.201331939126185
2022-09-12T15:07:27.557Z,25.155648210154332
2022-09-12T15:11:16.218Z,27.504411127430373
2022-09-12T15:14:16.494Z,27.51759498193953
2022-09-12T15:17:16.903Z,28.7289711835123
2022-09-12T15:21:19.668Z,25.4189547994316
2022-09-12T15:24:17.204Z,25.316905344230918
2022-09-12T15:27:17.315Z,26.43602524768426
2022-09-12T15:31:23.842Z,28.00022481301926
2022-09-12T15:34:17.209Z,27.48374423381712
2022-09-12T15:37:17.328Z,28.84756373458713
2022-09-12T15:41:19.768Z,26.658458555868528
2022-09-12T15:44:18.021Z,27.18962393314428
2022-09-12T15:47:18.162Z,29.565060351950283
2022-09-12T15:51:19.302Z,29.222499381468747
2022-09-12T15:54:17.778Z,30.788077397904438
2022-09-12T15:57:17.039Z,28.566037814165128
2022-09-12T16:01:18.267Z,29.679798227923023
2022-09-12T16:04:22.056Z,30.502476183979972
2022-09-12T16:07:18.757Z,30.130587969178116
2022-09-12T16:11:20.919Z,30.120931618848775
2022-09-12T16:14:18.600Z,29.76110459281133
2022-09-12T16:17:17.416Z,31.628162114573122
2022-09-12T16:21:17.127Z,32.05508341428548
2022-09-12T16:24:17.531Z,33.31555065949411
2022-09-12T16:27:18.403Z,33.694900329748634
2022-09-12T16:31:16.549Z,33.70456475293375
2022-09-12T16:34:17.639Z,32.86189917119667
2022-09-12T16:37:16.759Z,32.57947199522942
2022-09-12T16:41:18.590Z,33.31138541121893
2022-09-12T16:44:17.181Z,33.09014892330561
2022-09-12T16:47:17.394Z,32.857843445791495
2022-09-12T16:51:18.247Z,32.02519895561496
2022-09-12T16:54:19.030Z,32.74242297335692
2022-09-12T16:57:16.903Z,32.55800607344512
2022-09-12T17:01:18.056Z,33.32681931151092
2022-09-12T17:04:19.618Z,33.536444540153724
2022-09-12T17:07:17.191Z,33.3876311966422
2022-09-12T17:11:19.032Z,33.6226709732034
2022-09-12T17:14:17.371Z,34.224608266288435
2022-09-12T17:17:18.377Z,34.597968436730795
2022-09-12T17:21:17.960Z,35.24272689317973
2022-09-12T17:24:18.791Z,35.35133313479811
2022-09-12T17:27:18.253Z,35.25940605009478
2022-09-12T17:31:17.447Z,36.71073142094094
2022-09-12T17:34:19.074Z,37.07390206560445
2022-09-12T17:37:17.911Z,37.85964129781728
2022-09-12T17:41:19.788Z,38.87781448231642
2022-09-12T17:44:18.768Z,38.97798911835045
2022-09-12T17:47:18.109Z,39.270351019342726
2022-09-12T17:51:18.144Z,40.21648100786241
2022-09-12T17:54:19.672Z,40.51985144986008
2022-09-12T17:57:18.763Z,40.61319368208776
2022-09-12T18:02:24.919Z,41.236811377480606
2022-09-12T18:04:20.048Z,42.313599032841495
2022-09-12T18:07:21.386Z,42.888856788553234
2022-09-12T18:11:19.153Z,43.86466907950683
2022-09-12T18:14:18.214Z,43.98035296332723
2022-09-12T18:17:19.001Z,44.57791966143334
2022-09-12T18:21:18.191Z,45.29680615138292
2022-09-12T18:24:20.289Z,46.10103395275629
2022-09-12T18:27:18.655Z,46.853510393918384
2022-09-12T18:31:20.562Z,47.84828021102938
2022-09-12T18:34:18.486Z,48.16192271636573
2022-09-12T18:37:20.517Z,49.157189624424966
2022-09-12T18:41:19.748Z,49.646838914862634
2022-09-12T18:44:21.878Z,50.259353899238825
2022-09-12T18:47:19.723Z,50.63994195867309
2022-09-12T18:51:23.493Z,51.455491188723
2022-09-12T18:54:21.141Z,52.17155069987529
2022-09-12T18:57:20.149Z,52.87430196727284
2022-09-12T19:01:23.973Z,53.46792534687645
2022-09-12T19:04:20.809Z,53.90589082313926
2022-09-12T19:07:19.365Z,53.27452335216465
2022-09-12T19:11:19.677Z,53.05208762522688
2022-09-12T19:14:23.359Z,53.519756479040474
2022-09-12T19:17:20.077Z,54.219244688847624
2022-09-12T19:21:20.360Z,54.539601409028066
2022-09-12T19:24:20.767Z,55.30100346167339
2022-09-12T19:27:20.285Z,55.541459184527874
2022-09-12T19:31:20.072Z,56.24750346207496
2022-09-12T19:34:19.574Z,57.111472554608426
2022-09-12T19:37:21.271Z,57.42636271426415
2022-09-12T19:41:19.033Z,58.052555806081365
2022-09-12T19:44:22.090Z,58.87622903400818
2022-09-12T19:47:19.825Z,59.75575762811069
2022-09-12T19:51:21.015Z,61.623084346133425
2022-09-12T19:54:18.602Z,61.55143374363336
2022-09-12T19:57:20.541Z,62.57199638125603
2022-09-12T20:01:22.597Z,64.40908070666177
2022-09-12T20:04:18.710Z,65.21516577677268
2022-09-12T20:07:19.364Z,66.45420854983702
2022-09-12T20:11:32.888Z,68.00772171202408
2022-09-12T20:14:20.258Z,68.1722549384915
2022-09-12T20:17:20.585Z,68.76528502172887
2022-09-12T20:21:21.203Z,69.85473682461708
2022-09-12T20:24:21.826Z,70.95733187620212
2022-09-12T20:27:18.473Z,71.52857106145255
2022-09-12T20:31:17.794Z,72.36960743026395
2022-09-12T20:34:21.114Z,73.2128227103046
2022-09-12T20:37:18.193Z,73.15083820927224
2022-09-12T20:41:21.591Z,74.28412009052892
2022-09-12T20:44:19.641Z,74.64037111754833
2022-09-12T20:47:19.626Z,75.31994628836632
2022-09-12T20:51:19.886Z,75.29945705823053
2022-09-12T20:54:18.950Z,76.01720446371019
2022-09-12T20:57:19.667Z,76.46794622233652
2022-09-12T21:01:18.931Z,77.16349470439354
2022-09-12T21:04:20.492Z,77.24349411714364
2022-09-12T21:07:20.612Z,77.7823199869087
2022-09-12T21:11:19.957Z,78.43245532624645
2022-09-12T21:14:18.702Z,78.5564730095381
2022-09-12T21:17:18.422Z,79.32227875491058
2022-09-12T21:21:18.944Z,79.89942697307032
2022-09-12T21:24:19.164Z,79.58506312828172
2022-09-12T21:27:18.615Z,79.67274756710974
2022-09-12T21:31:17.794Z,80.7836903679577
2022-09-12T21:34:19.297Z,80.7926348693737
2022-09-12T21:37:20.598Z,80.8678599142013
2022-09-12T21:41:21.470Z,79.6779067651015
2022-09-12T21:44:20.358Z,80.30843197602927
2022-09-12T21:47:21.739Z,80.16393160394617
2022-09-12T21:51:17.475Z,80.53970661072808
2022-09-12T21:54:16.545Z,81.40872709087354
2022-09-12T21:57:16.945Z,82.36685906622753
2022-09-12T22:01:16.576Z,82.84089117188198
2022-09-12T22:04:16.693Z,82.89651258690742
2022-09-12T22:07:16.939Z,82.96159626988364
2022-09-12T22:11:18.131Z,83.03699461397954
2022-09-12T22:14:18.022Z,83.23111079250609
2022-09-12T22:17:16.837Z,83.18690145663868
2022-09-12T22:21:19.201Z,83.15959588220723
2022-09-12T22:24:34.214Z,83.20268107583696
2022-09-12T22:27:17.400Z,83.22041317752236
2022-09-12T22:31:19.932Z,82.75043113688297
2022-09-12T22:34:19.088Z,82.84852821902987
2022-09-12T22:37:20.048Z,83.49396747686981
2022-09-12T22:41:16.860Z,83.34492024594437
2022-09-12T22:44:18.483Z,84.0816222757115
2022-09-12T22:47:16.857Z,84.33136021851762
2022-09-12T22:51:16.682Z,84.79399354787665
2022-09-12T22:54:16.933Z,84.98482404104645
2022-09-12T22:57:17.149Z,84.86828716581566
2022-09-12T23:01:16.196Z,85.31123757009976
2022-09-12T23:04:16.345Z,85.87880557994133
2022-09-12T23:07:20.189Z,85.61703521854776
2022-09-12T23:11:18.689Z,85.73494976353987
2022-09-12T23:14:17.113Z,85.6486099165348
2022-09-12T23:17:17.375Z,85.50315813153813
2022-09-12T23:21:22.346Z,85.24380215544747
2022-09-12T23:24:19.188Z,86.07752734966894
2022-09-12T23:27:19.379Z,85.53738492488326
2022-09-12T23:31:17.871Z,85.44520641072877
2022-09-12T23:34:16.585Z,85.8824764218811
2022-09-12T23:37:16.431Z,86.18744943406651
2022-09-12T23:41:18.250Z,85.70431699704095
2022-09-12T23:44:16.970Z,86.14071845123769
2022-09-12T23:47:19.939Z,86.02647634501984
2022-09-12T23:51:16.348Z,86.05658324769544
2022-09-12T23:54:16.564Z,85.94154298292956
2022-09-12T23:57:17.713Z,86.5781888045678
